CheckWX is a tool to help pilots better visualize weather data.  It is not intended as a substitute for an official pre-flight weather briefing.

17:48:05 UTC

6R6 METAR
Terrell County Airport
Dryden, Texas, USA
Current

55 mins ago

K6R6 251653Z AUTO 00000KT 09/05 A3006 RMK AO1 SLP168 T00940050 $
Observed
Jan-25 @ 16:53 UTC
Visibility
Temperature
C / 48°F
Dewpoint
C / 41°F
Humidity
76%
Altimeter
30.06" Hg
Pressure
1017.92 hPa
Previous

2 hours ago

K6R6 251553Z AUTO 03005KT 09/04 A3006 RMK AO1 SLP167 T00890044 $
Observed
Jan-25 @ 15:53 UTC
Wind
  • 030° at 5 KTS
Visibility
Temperature
C / 48°F
Dewpoint
C / 39°F
Humidity
71%
Altimeter
30.06" Hg
Pressure
1017.92 hPa
Previous

3 hours ago

K6R6 251453Z AUTO 03006KT 08/04 A3003 RMK AO1 SLP159 T00830039 51016 $
Observed
Jan-25 @ 14:53 UTC
Wind
  • 030° at 6 KTS
Visibility
Temperature
C / 46°F
Dewpoint
C / 39°F
Humidity
76%
Altimeter
30.03" Hg
Pressure
1016.92 hPa